TSO876 EDDF-UUEE
Flight info
| Callsign | TSO876 |
|---|---|
| Flight time | N/A |
| Altitude | 39000 |
| Route | TOBAK8F/25C TOBAK N858 FEDZA Y172 MAG DCT BODLA L733 RANOK/K0880F390 R239 OTVOV/N0475F390 DCT ROLAV L72 SORES M864 IGORO/K0874F390 M864 DIPOP DIPOP3E |
| Aircraft | B772/H-SDE2E3FGHIJ5LORVWXY/LB1D1 |
Departure
| Time | 2026-05-04 09:32 |
|---|---|
| Airport | Frankfurt Main Airport (EDDF) |
Arrival
| Time | N/A |
|---|---|
| Airport | Sheremetyevo International Airport (UUEE) |
| Time | Latitude | Longitude | Altitude | Speed | Heading |
|---|---|---|---|---|---|
| 2026-05-04 09:08 | 50.04857 | 8.58571 | 360 ft | 0 kts | 160° |
| 2026-05-04 09:20 | 50.04861 | 8.58569 | 361 ft | 2 kts | 160° |
| 2026-05-04 09:20 | 50.04875 | 8.58561 | 361 ft | 2 kts | 160° |
| 2026-05-04 09:20 | 50.04889 | 8.58553 | 361 ft | 1 kts | 160° |
| 2026-05-04 09:21 | 50.04898 | 8.58548 | 360 ft | 2 kts | 151° |
| 2026-05-04 09:21 | 50.04909 | 8.58532 | 360 ft | 2 kts | 114° |
| 2026-05-04 09:21 | 50.04912 | 8.58510 | 360 ft | 2 kts | 85° |
| 2026-05-04 09:21 | 50.04911 | 8.58497 | 360 ft | 1 kts | 69° |
| 2026-05-04 09:22 | 50.04910 | 8.58492 | 360 ft | 0 kts | 70° |
| 2026-05-04 09:28 | 50.04910 | 8.58493 | 360 ft | 0 kts | 70° |
| 2026-05-04 09:28 | 50.04921 | 8.58540 | 360 ft | 8 kts | 69° |
| 2026-05-04 09:29 | 50.04931 | 8.58578 | 360 ft | 1 kts | 68° |
| 2026-05-04 09:29 | 50.04934 | 8.58589 | 360 ft | 0 kts | 68° |
| 2026-05-04 09:29 | 50.04935 | 8.58618 | 360 ft | 5 kts | 100° |
| 2026-05-04 09:29 | 50.04904 | 8.58667 | 360 ft | 8 kts | 152° |
| 2026-05-04 09:30 | 50.04850 | 8.58701 | 360 ft | 8 kts | 159° |
| 2026-05-04 09:30 | 50.04786 | 8.58739 | 360 ft | 11 kts | 160° |
| 2026-05-04 09:30 | 50.04702 | 8.58768 | 360 ft | 13 kts | 173° |
| 2026-05-04 09:30 | 50.04606 | 8.58737 | 360 ft | 15 kts | 209° |
| 2026-05-04 09:31 | 50.04517 | 8.58627 | 360 ft | 19 kts | 227° |
| 2026-05-04 09:31 | 50.04393 | 8.58191 | 360 ft | 80 kts | 250° |
| 2026-05-04 09:31 | 50.04109 | 8.56990 | 371 ft | 145 kts | 249° |
| 2026-05-04 09:31 | 50.03748 | 8.55396 | 907 ft | 151 kts | 249° |
| 2026-05-04 09:32 | 50.03376 | 8.53806 | 1435 ft | 161 kts | 249° |
| 2026-05-04 09:32 | 50.02986 | 8.52158 | 1794 ft | 165 kts | 247° |
| 2026-05-04 09:34 | 49.95392 | 8.46765 | 3750 ft | 215 kts | 197° |
| 2026-05-04 09:34 | 49.93886 | 8.46059 | 3831 ft | 231 kts | 200° |
| 2026-05-04 09:34 | 49.92438 | 8.44802 | 3830 ft | 246 kts | 222° |
| 2026-05-04 09:34 | 49.91416 | 8.42650 | 3815 ft | 252 kts | 247° |
| 2026-05-04 09:35 | 49.91113 | 8.39900 | 4130 ft | 268 kts | 274° |
| 2026-05-04 09:35 | 49.91590 | 8.37137 | 4780 ft | 270 kts | 296° |
| 2026-05-04 09:35 | 49.92779 | 8.34892 | 4945 ft | 273 kts | 321° |
| 2026-05-04 09:35 | 49.94488 | 8.33689 | 4963 ft | 272 kts | 346° |
| 2026-05-04 09:37 | 50.07175 | 8.28993 | 7857 ft | 286 kts | 16° |
| 2026-05-04 09:37 | 50.09116 | 8.29991 | 8534 ft | 289 kts | 18° |
| 2026-05-04 09:38 | 50.11032 | 8.31007 | 9135 ft | 293 kts | 18° |
| 2026-05-04 09:38 | 50.12957 | 8.32022 | 9783 ft | 295 kts | 18° |
| 2026-05-04 09:38 | 50.14907 | 8.33046 | 10290 ft | 302 kts | 18° |
| 2026-05-04 09:38 | 50.16757 | 8.34016 | 10488 ft | 319 kts | 17° |
| 2026-05-04 09:39 | 50.18647 | 8.35007 | 10680 ft | 334 kts | 17° |
| 2026-05-04 09:39 | 50.20905 | 8.36193 | 10891 ft | 351 kts | 17° |
| 2026-05-04 09:39 | 50.23272 | 8.37437 | 11130 ft | 368 kts | 17° |
| 2026-05-04 09:39 | 50.25741 | 8.38737 | 11405 ft | 382 kts | 17° |
| 2026-05-04 09:40 | 50.28248 | 8.40291 | 11849 ft | 392 kts | 26° |
| 2026-05-04 09:40 | 50.30553 | 8.42591 | 12494 ft | 397 kts | 37° |
| 2026-05-04 09:40 | 50.32658 | 8.45405 | 13193 ft | 400 kts | 41° |
| 2026-05-04 09:40 | 50.34748 | 8.48309 | 13849 ft | 406 kts | 41° |
| 2026-05-04 09:41 | 50.36871 | 8.51262 | 14553 ft | 412 kts | 41° |
| 2026-05-04 09:42 | 50.52601 | 8.72588 | 19717 ft | 446 kts | 39° |
| 2026-05-04 09:43 | 50.54980 | 8.75749 | 20375 ft | 452 kts | 42° |
| 2026-05-04 09:43 | 50.57124 | 8.79364 | 21035 ft | 457 kts | 52° |
| 2026-05-04 09:43 | 50.58879 | 8.83526 | 21680 ft | 462 kts | 60° |
| 2026-05-04 09:43 | 50.60442 | 8.87940 | 22343 ft | 466 kts | 62° |
| 2026-05-04 09:44 | 50.62003 | 8.92427 | 22940 ft | 472 kts | 62° |
| 2026-05-04 09:44 | 50.63578 | 8.96967 | 23561 ft | 477 kts | 62° |
| 2026-05-04 09:44 | 50.65169 | 9.01559 | 24179 ft | 481 kts | 62° |
| 2026-05-04 09:46 | 50.76343 | 9.35113 | 28270 ft | 510 kts | 64° |
| 2026-05-04 09:46 | 50.77909 | 9.40141 | 28817 ft | 514 kts | 64° |
| 2026-05-04 09:46 | 50.79490 | 9.45215 | 29358 ft | 518 kts | 64° |
| 2026-05-04 09:47 | 50.81076 | 9.50311 | 29886 ft | 521 kts | 64° |
| 2026-05-04 09:47 | 50.82668 | 9.55430 | 30500 ft | 522 kts | 64° |
| 2026-05-04 09:49 | 50.93642 | 9.91035 | 35010 ft | 516 kts | 65° |
| 2026-05-04 09:49 | 50.95197 | 9.96127 | 35538 ft | 514 kts | 65° |
| 2026-05-04 09:49 | 50.96742 | 10.01197 | 36016 ft | 513 kts | 65° |